Time;durP1;ratioP1;P1;durP2;ratioP2;P2;SDS_P1;SDS_P2;PMS_P1;PMS_P2;Temp;Humidity;BMP_temperature;BMP_pressure;BME280_temperature;BME280_humidity;BME280_pressure;Samples;Min_cycle;Max_cycle;Signal;HPM_P1;HPM_P2
2022/09/08 00:00:13;;;;;;;13.48;5.88;;;;;;;;;;5089454;28;20080;-90
2022/09/08 00:02:39;;;;;;;13.80;5.13;;;;;;;;;;5082650;28;20024;-91
2022/09/08 00:05:10;;;;;;;11.02;5.18;;;;;;;;;;5087364;28;20026;-91
2022/09/08 00:07:38;;;;;;;10.63;4.70;;;;;;;;;;5095480;28;20051;-91
2022/09/08 00:10:04;;;;;;;13.40;5.45;;;;;;;;;;5085546;28;20028;-92
2022/09/08 00:12:30;;;;;;;13.57;5.45;;;;;;;;;;5109157;28;20062;-92
2022/09/08 00:14:59;;;;;;;13.15;5.90;;;;;;;;;;5103146;28;20019;-92
2022/09/08 00:17:25;;;;;;;10.70;5.60;;;;;;;;;;5111310;28;20030;-92
2022/09/08 00:19:51;;;;;;;13.90;6.32;;;;;;;;;;5087002;28;20080;-94
2022/09/08 00:22:20;;;;;;;8.70;5.88;;;;;;;;;;5097844;28;20043;-93
2022/09/08 00:24:48;;;;;;;14.30;6.03;;;;;;;;;;5098067;28;20055;-92
2022/09/08 00:27:16;;;;;;;13.13;6.55;;;;;;;;;;5090061;28;20024;-92
2022/09/08 00:29:43;;;;;;;11.68;5.50;;;;;;;;;;5095672;28;20024;-92
2022/09/08 00:32:10;;;;;;;13.75;5.80;;;;;;;;;;5096713;28;20114;-92
2022/09/08 00:34:38;;;;;;;13.52;6.32;;;;;;;;;;5090413;28;20069;-92
2022/09/08 00:37:07;;;;;;;13.05;5.70;;;;;;;;;;5097299;28;20540;-92
2022/09/08 00:39:41;;;;;;;12.73;5.82;;;;;;;;;;5100956;28;20028;-92
2022/09/08 00:42:09;;;;;;;10.13;6.00;;;;;;;;;;5078501;28;20012;-92
2022/09/08 00:44:49;;;;;;;12.45;6.22;;;;;;;;;;5102540;28;20043;-92
2022/09/08 00:47:22;;;;;;;10.85;6.45;;;;;;;;;;5089119;28;20028;-92
2022/09/08 00:49:50;;;;;;;15.68;5.72;;;;;;;;;;5097955;28;20020;-93
2022/09/08 00:52:19;;;;;;;14.63;5.78;;;;;;;;;;5080627;28;20035;-92
2022/09/08 00:54:45;;;;;;;13.20;5.60;;;;;;;;;;5090133;28;20020;-93
2022/09/08 00:57:12;;;;;;;13.02;5.95;;;;;;;;;;5091785;28;20070;-92
2022/09/08 00:59:38;;;;;;;13.80;5.82;;;;;;;;;;5086520;28;20073;-92
2022/09/08 01:02:31;;;;;;;14.35;5.75;;;;;;;;;;5087603;28;20023;-92
2022/09/08 01:05:00;;;;;;;12.50;5.55;;;;;;;;;;5080314;28;20107;-90
2022/09/08 01:13:21;;;;;;;14.18;5.35;;;;;;;;;;5112308;28;20108;-92
2022/09/08 01:15:48;;;;;;;15.20;4.88;;;;;;;;;;5076319;28;20110;-92
2022/09/08 01:18:14;;;;;;;10.10;4.93;;;;;;;;;;5077969;28;20112;-91
2022/09/08 01:20:47;;;;;;;15.02;5.53;;;;;;;;;;5079232;28;20012;-92
2022/09/08 01:23:13;;;;;;;12.60;4.70;;;;;;;;;;5087216;28;20062;-92
2022/09/08 01:26:06;;;;;;;16.65;5.35;;;;;;;;;;5097122;28;20670;-92
2022/09/08 01:28:53;;;;;;;13.60;5.00;;;;;;;;;;5081571;28;20027;-91
2022/09/08 01:31:20;;;;;;;9.90;4.70;;;;;;;;;;5077390;28;20044;-91
2022/09/08 01:33:46;;;;;;;12.15;5.32;;;;;;;;;;5088966;28;20102;-92
2022/09/08 01:36:22;;;;;;;13.70;5.45;;;;;;;;;;5101947;28;20431;-92
2022/09/08 01:38:48;;;;;;;13.02;5.75;;;;;;;;;;5088139;28;20028;-92
2022/09/08 01:41:15;;;;;;;13.20;5.78;;;;;;;;;;5080632;28;20099;-92
2022/09/08 01:43:41;;;;;;;10.90;5.90;;;;;;;;;;5085849;28;20016;-92
2022/09/08 01:46:07;;;;;;;11.13;5.70;;;;;;;;;;5078894;28;20032;-92
2022/09/08 01:48:35;;;;;;;15.75;5.28;;;;;;;;;;5089328;28;20024;-92
2022/09/08 01:51:03;;;;;;;13.48;5.85;;;;;;;;;;5076516;28;20081;-92
2022/09/08 01:53:30;;;;;;;12.68;5.57;;;;;;;;;;5093109;28;20027;-92
2022/09/08 01:55:56;;;;;;;14.65;5.93;;;;;;;;;;5095893;28;20035;-92
2022/09/08 01:58:23;;;;;;;11.07;5.28;;;;;;;;;;5088349;28;20034;-93
2022/09/08 02:00:49;;;;;;;10.32;4.85;;;;;;;;;;5096308;28;20458;-93
2022/09/08 02:03:16;;;;;;;9.63;5.13;;;;;;;;;;5083585;28;20012;-92
2022/09/08 02:05:43;;;;;;;11.40;5.28;;;;;;;;;;5095212;28;20058;-92
2022/09/08 02:08:10;;;;;;;11.30;5.40;;;;;;;;;;5111054;28;20012;-92
2022/09/08 02:10:38;;;;;;;19.08;5.72;;;;;;;;;;5105012;28;20055;-93
2022/09/08 02:13:07;;;;;;;12.35;6.05;;;;;;;;;;5105843;28;20518;-92
2022/09/08 02:15:33;;;;;;;15.18;5.85;;;;;;;;;;5090281;28;20375;-92
2022/09/08 02:18:00;;;;;;;15.30;5.45;;;;;;;;;;5090106;28;20027;-93
2022/09/08 02:20:26;;;;;;;14.35;5.93;;;;;;;;;;5092746;28;20056;-92
2022/09/08 02:22:53;;;;;;;10.85;5.57;;;;;;;;;;5089114;28;20110;-92
2022/09/08 02:25:21;;;;;;;15.48;6.30;;;;;;;;;;5090269;28;20114;-93
2022/09/08 02:27:48;;;;;;;11.50;5.35;;;;;;;;;;5081622;28;20022;-93
2022/09/08 02:30:14;;;;;;;13.18;5.57;;;;;;;;;;5104457;28;20027;-92
2022/09/08 02:32:40;;;;;;;11.98;5.78;;;;;;;;;;5093533;28;20035;-92
2022/09/08 02:35:09;;;;;;;11.85;5.60;;;;;;;;;;5089672;28;20362;-91
2022/09/08 02:37:40;;;;;;;11.23;5.40;;;;;;;;;;5076620;28;20028;-92
2022/09/08 02:40:09;;;;;;;11.20;5.70;;;;;;;;;;5082081;28;20087;-92
2022/09/08 02:42:36;;;;;;;11.15;5.93;;;;;;;;;;5090092;28;20031;-93
2022/09/08 02:45:02;;;;;;;9.35;5.95;;;;;;;;;;5092607;28;20043;-91
2022/09/08 02:47:28;;;;;;;15.10;6.35;;;;;;;;;;5085566;28;20051;-92
2022/09/08 02:49:55;;;;;;;10.90;6.00;;;;;;;;;;5088375;28;20034;-92
2022/09/08 02:52:21;;;;;;;13.43;6.05;;;;;;;;;;5085178;28;20486;-93
2022/09/08 02:54:47;;;;;;;10.20;6.40;;;;;;;;;;5096002;28;20027;-91
2022/09/08 02:57:13;;;;;;;11.00;6.18;;;;;;;;;;5079385;28;20032;-92
2022/09/08 02:59:39;;;;;;;16.25;5.45;;;;;;;;;;5098953;28;20025;-91
2022/09/08 03:02:06;;;;;;;9.48;5.38;;;;;;;;;;5090276;28;20020;-91
2022/09/08 03:04:32;;;;;;;12.88;6.00;;;;;;;;;;5086878;28;20016;-92
2022/09/08 03:07:00;;;;;;;12.27;6.43;;;;;;;;;;5095308;28;20024;-92
2022/09/08 03:09:26;;;;;;;15.85;6.63;;;;;;;;;;5090667;28;20020;-92
2022/09/08 03:11:52;;;;;;;16.42;6.32;;;;;;;;;;5080823;28;20103;-92
2022/09/08 03:14:19;;;;;;;7.50;4.68;;;;;;;;;;5097591;28;20122;-93
2022/09/08 03:16:46;;;;;;;17.77;5.50;;;;;;;;;;5079035;28;20541;-93
2022/09/08 03:19:12;;;;;;;9.65;4.70;;;;;;;;;;5088165;28;20019;-92
2022/09/08 03:21:38;;;;;;;16.55;5.00;;;;;;;;;;5095033;28;20115;-92
2022/09/08 03:24:09;;;;;;;11.07;4.63;;;;;;;;;;5086148;28;20110;-92
2022/09/08 03:26:38;;;;;;;9.02;4.53;;;;;;;;;;5079806;28;20056;-92
2022/09/08 03:29:06;;;;;;;13.88;4.65;;;;;;;;;;5094172;28;20110;-91
2022/09/08 03:31:32;;;;;;;18.20;5.30;;;;;;;;;;5084817;28;20020;-92
2022/09/08 03:33:58;;;;;;;16.30;5.82;;;;;;;;;;5080987;28;20597;-92
2022/09/08 03:36:27;;;;;;;15.95;5.65;;;;;;;;;;5086060;28;20035;-91
2022/09/08 03:38:54;;;;;;;11.60;5.22;;;;;;;;;;5078223;28;20057;-91
2022/09/08 03:41:20;;;;;;;20.08;5.05;;;;;;;;;;5094703;28;20054;-92
2022/09/08 03:43:48;;;;;;;13.98;5.45;;;;;;;;;;5085275;28;20020;-91
2022/09/08 03:46:14;;;;;;;10.05;5.13;;;;;;;;;;5082852;28;20038;-91
2022/09/08 03:48:41;;;;;;;15.05;5.55;;;;;;;;;;5106835;28;20537;-91
2022/09/08 03:51:10;;;;;;;10.27;5.97;;;;;;;;;;5083775;28;20093;-91
2022/09/08 03:53:36;;;;;;;12.45;6.45;;;;;;;;;;5077313;28;20028;-91
2022/09/08 03:56:05;;;;;;;11.70;5.80;;;;;;;;;;5098528;28;20030;-91
2022/09/08 03:58:32;;;;;;;9.25;4.70;;;;;;;;;;5081854;28;20032;-92
2022/09/08 04:01:00;;;;;;;14.57;5.05;;;;;;;;;;5078345;28;20027;-91
2022/09/08 04:03:26;;;;;;;12.15;4.97;;;;;;;;;;5084640;28;20044;-91
2022/09/08 04:05:53;;;;;;;12.10;4.55;;;;;;;;;;5078466;28;20386;-92
2022/09/08 04:08:19;;;;;;;9.43;4.68;;;;;;;;;;5083025;28;20024;-91
2022/09/08 04:10:52;;;;;;;13.82;4.53;;;;;;;;;;5086488;28;20032;-91
2022/09/08 04:13:19;;;;;;;12.50;4.70;;;;;;;;;;5089169;28;20111;-92
2022/09/08 04:15:45;;;;;;;13.57;4.75;;;;;;;;;;5082517;28;20486;-92
2022/09/08 04:18:11;;;;;;;7.03;4.30;;;;;;;;;;5081578;28;20119;-92
2022/09/08 04:20:39;;;;;;;11.25;4.28;;;;;;;;;;5080630;27;20016;-92
2022/09/08 04:23:08;;;;;;;16.63;4.63;;;;;;;;;;5078499;28;20115;-91
2022/09/08 04:25:37;;;;;;;9.55;4.20;;;;;;;;;;5086869;28;20027;-91
2022/09/08 04:28:05;;;;;;;12.13;4.53;;;;;;;;;;5079078;28;20034;-93
2022/09/08 04:30:32;;;;;;;11.85;4.47;;;;;;;;;;5084669;28;20120;-94
2022/09/08 04:33:00;;;;;;;10.65;4.35;;;;;;;;;;5081934;28;20027;-92
2022/09/08 04:35:29;;;;;;;11.55;4.50;;;;;;;;;;5079007;28;20463;-95
2022/09/08 04:37:57;;;;;;;10.88;4.35;;;;;;;;;;5086053;27;20051;-92
2022/09/08 04:40:25;;;;;;;14.93;4.63;;;;;;;;;;5081437;28;20039;-92
2022/09/08 04:42:52;;;;;;;8.75;4.55;;;;;;;;;;5086077;28;20099;-92
2022/09/08 04:45:20;;;;;;;11.75;4.50;;;;;;;;;;5080431;28;20135;-92
2022/09/08 04:47:49;;;;;;;14.43;4.35;;;;;;;;;;5081749;28;20081;-92
2022/09/08 04:50:20;;;;;;;10.45;4.03;;;;;;;;;;5076248;28;20031;-92
2022/09/08 04:52:46;;;;;;;13.55;3.47;;;;;;;;;;5073487;28;20363;-92
2022/09/08 04:55:12;;;;;;;14.05;4.07;;;;;;;;;;5073987;28;20024;-92
2022/09/08 04:57:38;;;;;;;14.70;4.20;;;;;;;;;;5079396;28;20489;-92
2022/09/08 05:00:06;;;;;;;17.00;4.15;;;;;;;;;;5080778;28;20111;-92
2022/09/08 05:02:32;;;;;;;15.85;4.65;;;;;;;;;;5081724;28;20024;-92
2022/09/08 05:05:01;;;;;;;13.10;4.20;;;;;;;;;;5079711;28;20107;-92
2022/09/08 05:07:29;;;;;;;13.73;4.10;;;;;;;;;;5081010;28;20120;-92
2022/09/08 05:09:58;;;;;;;15.88;5.20;;;;;;;;;;5073172;28;20032;-92
2022/09/08 05:12:24;;;;;;;16.95;4.43;;;;;;;;;;5072397;28;20025;-92
2022/09/08 05:14:50;;;;;;;16.63;4.97;;;;;;;;;;5081703;28;20078;-92
2022/09/08 05:17:19;;;;;;;16.55;5.05;;;;;;;;;;5078914;28;20687;-92
2022/09/08 05:20:08;;;;;;;20.83;5.25;;;;;;;;;;5075981;28;20029;-92
2022/09/08 05:22:31;;;;;;;20.27;5.07;;;;;;;;;;5081633;28;20036;-94
2022/09/08 05:25:00;;;;;;;14.43;5.00;;;;;;;;;;5091914;28;20584;-92
2022/09/08 05:27:28;;;;;;;14.98;4.97;;;;;;;;;;5082231;28;20489;-92
2022/09/08 05:29:55;;;;;;;20.48;5.78;;;;;;;;;;5072790;28;20495;-92
2022/09/08 05:32:21;;;;;;;17.55;6.63;;;;;;;;;;5082296;28;20107;-91
2022/09/08 05:34:47;;;;;;;16.60;5.75;;;;;;;;;;5080996;28;20016;-92
2022/09/08 05:37:15;;;;;;;13.63;7.15;;;;;;;;;;5071541;28;20052;-92
2022/09/08 05:39:42;;;;;;;13.63;7.07;;;;;;;;;;5080831;28;20025;-92
2022/09/08 05:42:08;;;;;;;13.30;9.20;;;;;;;;;;5071445;28;20023;-92
2022/09/08 05:44:34;;;;;;;24.58;11.95;;;;;;;;;;5074103;28;20495;-91
2022/09/08 05:47:00;;;;;;;18.70;9.52;;;;;;;;;;5063685;28;20478;-92
2022/09/08 05:49:27;;;;;;;15.95;8.48;;;;;;;;;;5060529;28;20488;-92
2022/09/08 05:51:53;;;;;;;13.95;7.22;;;;;;;;;;5060666;28;20035;-92
2022/09/08 05:54:22;;;;;;;13.63;7.35;;;;;;;;;;5071434;28;20024;-92
2022/09/08 05:56:51;;;;;;;8.90;7.07;;;;;;;;;;5059994;28;20115;-92
2022/09/08 05:59:19;;;;;;;11.38;7.50;;;;;;;;;;5065828;28;20016;-92
2022/09/08 06:01:45;;;;;;;15.48;6.72;;;;;;;;;;5069741;28;20028;-91
2022/09/08 06:04:15;;;;;;;15.55;5.68;;;;;;;;;;5055252;28;20498;-92
2022/09/08 06:06:41;;;;;;;16.90;6.30;;;;;;;;;;5053843;28;20024;-92
2022/09/08 06:09:07;;;;;;;12.18;6.70;;;;;;;;;;5060289;28;20024;-91
2022/09/08 06:11:35;;;;;;;10.98;6.70;;;;;;;;;;5054243;28;20013;-92
2022/09/08 06:14:01;;;;;;;13.18;6.55;;;;;;;;;;5061990;28;20028;-92
2022/09/08 06:16:30;;;;;;;15.45;6.88;;;;;;;;;;5067831;28;20110;-92
2022/09/08 06:18:59;;;;;;;9.52;5.75;;;;;;;;;;5056416;28;20052;-92
2022/09/08 06:21:27;;;;;;;13.43;6.47;;;;;;;;;;5054355;28;20024;-91
2022/09/08 06:24:18;;;;;;;12.02;5.43;;;;;;;;;;5056642;28;20024;-92
2022/09/08 06:26:51;;;;;;;15.23;6.50;;;;;;;;;;5075815;28;20032;-92
2022/09/08 06:29:29;;;;;;;13.18;6.05;;;;;;;;;;5054464;28;20356;-92
2022/09/08 06:31:59;;;;;;;9.10;5.13;;;;;;;;;;5055850;28;20150;-91
2022/09/08 06:34:38;;;;;;;12.27;6.10;;;;;;;;;;5054818;28;20839;-92
2022/09/08 06:37:05;;;;;;;13.50;6.43;;;;;;;;;;5062152;28;20107;-92
2022/09/08 06:39:36;;;;;;;11.18;6.15;;;;;;;;;;5067330;28;20016;-91
2022/09/08 06:42:07;;;;;;;9.38;5.25;;;;;;;;;;5059756;28;20021;-92
2022/09/08 06:44:37;;;;;;;12.27;5.47;;;;;;;;;;5067555;28;20016;-92
2022/09/08 06:47:06;;;;;;;12.35;5.07;;;;;;;;;;5074132;28;20043;-91
2022/09/08 06:49:32;;;;;;;13.13;4.93;;;;;;;;;;5073798;28;20066;-91
2022/09/08 06:52:05;;;;;;;8.73;4.40;;;;;;;;;;5075621;28;20432;-91
2022/09/08 06:54:44;;;;;;;15.05;4.70;;;;;;;;;;5073290;28;20449;-91
2022/09/08 06:57:32;;;;;;;8.18;3.72;;;;;;;;;;5095836;28;20028;-92
2022/09/08 07:00:06;;;;;;;10.13;4.32;;;;;;;;;;5070297;28;20036;-92
2022/09/08 07:02:42;;;;;;;11.20;4.65;;;;;;;;;;5081924;28;20069;-92
2022/09/08 07:05:20;;;;;;;14.23;5.00;;;;;;;;;;5084670;28;20025;-91
2022/09/08 07:08:08;;;;;;;11.13;4.10;;;;;;;;;;5070390;28;20362;-92
2022/09/08 07:10:46;;;;;;;13.23;4.25;;;;;;;;;;5092672;28;20478;-91
2022/09/08 07:13:31;;;;;;;10.18;4.00;;;;;;;;;;5094875;28;20028;-92
2022/09/08 07:16:23;;;;;;;12.68;3.72;;;;;;;;;;5064385;28;20564;-92
2022/09/08 07:18:53;;;;;;;11.50;3.92;;;;;;;;;;5070067;28;20040;-92
2022/09/08 07:21:46;;;;;;;13.07;4.30;;;;;;;;;;5078734;28;20036;-92
2022/09/08 07:24:16;;;;;;;12.63;4.10;;;;;;;;;;5078169;28;20054;-91
2022/09/08 07:26:52;;;;;;;11.13;4.13;;;;;;;;;;5078790;28;20028;-92
2022/09/08 07:29:29;;;;;;;13.20;4.30;;;;;;;;;;5083064;28;20158;-92
2022/09/08 07:31:55;;;;;;;15.05;4.10;;;;;;;;;;5090135;28;20028;-92
2022/09/08 07:34:23;;;;;;;12.38;4.50;;;;;;;;;;5073683;28;20027;-92
2022/09/08 07:36:50;;;;;;;11.20;3.97;;;;;;;;;;5079468;28;20024;-91
2022/09/08 07:39:19;;;;;;;13.30;4.05;;;;;;;;;;5074922;28;20020;-92
2022/09/08 07:41:48;;;;;;;14.63;4.55;;;;;;;;;;5066941;28;20490;-92
2022/09/08 07:44:21;;;;;;;16.90;4.70;;;;;;;;;;5086533;28;20064;-92
2022/09/08 07:46:58;;;;;;;14.50;4.18;;;;;;;;;;5080756;28;20094;-92
2022/09/08 07:49:30;;;;;;;13.85;4.30;;;;;;;;;;5079730;28;20078;-92
2022/09/08 07:51:58;;;;;;;12.85;4.03;;;;;;;;;;5077729;28;20025;-91
2022/09/08 07:54:40;;;;;;;16.00;5.13;;;;;;;;;;5074442;28;20033;-92
2022/09/08 07:57:15;;;;;;;9.20;3.90;;;;;;;;;;5082544;28;20043;-92
2022/09/08 07:59:47;;;;;;;24.60;5.00;;;;;;;;;;5078505;28;20024;-92
2022/09/08 08:02:36;;;;;;;9.82;4.43;;;;;;;;;;5074827;28;20063;-92
2022/09/08 08:05:08;;;;;;;12.05;4.35;;;;;;;;;;5082303;28;20017;-92
2022/09/08 08:07:41;;;;;;;11.48;4.88;;;;;;;;;;5078088;28;20020;-92
2022/09/08 08:10:28;;;;;;;12.18;5.05;;;;;;;;;;5079446;28;20047;-92
2022/09/08 08:13:00;;;;;;;12.20;4.22;;;;;;;;;;5085012;28;20021;-91
2022/09/08 08:15:26;;;;;;;11.32;4.28;;;;;;;;;;5080713;28;20075;-92
2022/09/08 08:17:58;;;;;;;13.60;4.32;;;;;;;;;;5089536;28;20023;-90
2022/09/08 08:20:39;;;;;;;18.23;5.05;;;;;;;;;;5075602;28;20036;-90
2022/09/08 08:23:14;;;;;;;13.40;4.35;;;;;;;;;;5081332;28;20021;-89
2022/09/08 08:25:49;;;;;;;15.20;5.47;;;;;;;;;;5075180;28;20035;-89
2022/09/08 08:28:19;;;;;;;14.60;5.20;;;;;;;;;;5079880;28;20052;-89
2022/09/08 08:31:03;;;;;;;14.73;4.95;;;;;;;;;;5086767;28;20367;-90
2022/09/08 08:33:32;;;;;;;18.65;5.70;;;;;;;;;;5090147;28;20116;-89
2022/09/08 08:50:21;;;;;;;16.85;4.90;;;;;;;;;;5084399;27;20421;-75
2022/09/08 08:53:05;;;;;;;16.70;4.88;;;;;;;;;;5075713;28;20047;-72
2022/09/08 08:55:46;;;;;;;20.02;5.40;;;;;;;;;;5091838;28;20020;-72
2022/09/08 08:58:15;;;;;;;11.88;4.65;;;;;;;;;;5086182;28;20024;-72
2022/09/08 09:01:00;;;;;;;15.43;4.47;;;;;;;;;;5083778;28;20503;-72
2022/09/08 09:03:45;;;;;;;15.48;4.38;;;;;;;;;;5094056;28;20039;-72
2022/09/08 09:06:30;;;;;;;16.73;4.28;;;;;;;;;;5087755;28;20305;-73
2022/09/08 09:09:02;;;;;;;13.85;4.15;;;;;;;;;;5098087;28;20077;-73
2022/09/08 09:11:41;;;;;;;17.45;5.07;;;;;;;;;;5086880;28;20395;-71
2022/09/08 09:14:27;;;;;;;18.17;5.05;;;;;;;;;;5098850;28;20254;-73
2022/09/08 09:16:53;;;;;;;25.52;4.95;;;;;;;;;;5098447;28;20031;-72
2022/09/08 09:19:25;;;;;;;16.50;4.28;;;;;;;;;;5098483;28;20035;-72
2022/09/08 09:22:06;;;;;;;14.50;3.88;;;;;;;;;;5094127;28;20016;-73
2022/09/08 09:24:45;;;;;;;12.35;3.53;;;;;;;;;;5090990;28;20024;-72
2022/09/08 09:27:13;;;;;;;10.90;4.00;;;;;;;;;;5091642;28;20102;-72
2022/09/08 09:29:41;;;;;;;11.80;4.57;;;;;;;;;;5089905;28;20519;-72
2022/09/08 09:32:28;;;;;;;20.98;5.13;;;;;;;;;;5095056;28;20059;-72
2022/09/08 09:35:01;;;;;;;12.27;4.25;;;;;;;;;;5083724;28;20028;-72
2022/09/08 09:37:40;;;;;;;11.63;4.15;;;;;;;;;;5088453;28;20496;-72
2022/09/08 09:40:11;;;;;;;21.80;4.30;;;;;;;;;;5093268;28;20141;-72
2022/09/08 09:42:56;;;;;;;16.83;4.55;;;;;;;;;;5093008;28;20019;-72
2022/09/08 09:45:25;;;;;;;17.40;4.68;;;;;;;;;;5090801;28;20059;-73
2022/09/08 09:48:10;;;;;;;14.40;4.18;;;;;;;;;;5085660;28;20044;-72
2022/09/08 09:50:51;;;;;;;13.40;4.32;;;;;;;;;;5064364;28;20016;-72
2022/09/08 09:53:17;;;;;;;;;;;;;;;;;;5070082;28;20500;-72
2022/09/08 09:56:07;;;;;;;13.73;4.28;;;;;;;;;;5056867;28;19987;-72
2022/09/08 09:58:41;;;;;;;11.15;4.03;;;;;;;;;;5053909;28;20165;-72
2022/09/08 10:01:15;;;;;;;11.00;3.85;;;;;;;;;;5059335;28;20041;-73
2022/09/08 10:03:58;;;;;;;14.98;4.15;;;;;;;;;;5059452;28;20032;-72
2022/09/08 10:06:26;;;;;;;14.75;4.32;;;;;;;;;;5060834;28;20017;-72
2022/09/08 10:09:01;;;;;;;12.43;5.03;;;;;;;;;;5063971;28;20081;-72
2022/09/08 10:11:33;;;;;;;13.40;4.30;;;;;;;;;;5061360;28;20040;-72
2022/09/08 10:14:14;;;;;;;14.07;5.03;;;;;;;;;;5059664;28;20035;-72
2022/09/08 10:17:03;;;;;;;15.48;4.90;;;;;;;;;;5062837;28;20012;-72
2022/09/08 10:19:32;;;;;;;17.10;4.55;;;;;;;;;;5062355;28;20040;-73
2022/09/08 10:22:09;;;;;;;12.70;4.25;;;;;;;;;;5063655;28;20111;-72
2022/09/08 10:24:41;;;;;;;15.95;5.30;;;;;;;;;;5060493;28;20021;-73
2022/09/08 10:27:10;;;;;;;16.67;5.05;;;;;;;;;;5063885;28;20096;-71
2022/09/08 10:29:55;;;;;;;12.90;4.43;;;;;;;;;;5059284;28;20231;-72
2022/09/08 10:32:27;;;;;;;14.38;5.05;;;;;;;;;;5054977;28;20033;-72
2022/09/08 10:34:54;;;;;;;16.92;4.68;;;;;;;;;;5059433;28;20031;-74
2022/09/08 10:37:20;;;;;;;16.40;4.63;;;;;;;;;;5061296;28;20028;-74
2022/09/08 10:40:05;;;;;;;12.40;5.15;;;;;;;;;;5058284;28;20025;-74
2022/09/08 10:42:43;;;;;;;11.57;4.78;;;;;;;;;;5059674;28;20023;-75
2022/09/08 10:45:10;;;;;;;14.45;5.05;;;;;;;;;;5055665;28;20016;-74
2022/09/08 10:47:48;;;;;;;12.88;4.15;;;;;;;;;;5060823;28;20653;-72
2022/09/08 10:50:19;;;;;;;19.20;4.80;;;;;;;;;;5057183;28;20040;-75
2022/09/08 10:52:45;;;;;;;;;;;;;;;;;;5055699;28;20024;-75
2022/09/08 10:55:33;;;;;;;18.15;5.18;;;;;;;;;;5053220;28;19908;-75
2022/09/08 10:58:02;;;;;;;11.25;4.70;;;;;;;;;;5053251;28;20082;-73
2022/09/08 11:00:34;;;;;;;18.02;4.82;;;;;;;;;;5051829;28;20044;-74
2022/09/08 11:03:19;;;;;;;17.35;4.13;;;;;;;;;;5053222;28;20044;-75
2022/09/08 11:06:06;;;;;;;17.70;4.57;;;;;;;;;;5054981;28;20104;-75
2022/09/08 11:08:46;;;;;;;16.27;4.20;;;;;;;;;;5051480;28;20143;-74
2022/09/08 11:11:25;;;;;;;14.48;4.35;;;;;;;;;;5051626;28;20363;-75
2022/09/08 11:14:03;;;;;;;9.75;4.05;;;;;;;;;;5054469;28;20027;-75
2022/09/08 11:16:51;;;;;;;12.00;3.78;;;;;;;;;;5052816;28;20036;-73
2022/09/08 11:19:26;;;;;;;15.07;4.28;;;;;;;;;;5054304;28;20081;-75
2022/09/08 11:22:05;;;;;;;16.95;4.35;;;;;;;;;;5050334;28;20027;-76
2022/09/08 11:24:38;;;;;;;17.13;4.40;;;;;;;;;;5058011;28;20032;-75
2022/09/08 11:27:24;;;;;;;14.93;4.32;;;;;;;;;;5054928;28;20146;-75
2022/09/08 11:30:10;;;;;;;15.90;5.03;;;;;;;;;;5062771;28;20017;-75
2022/09/08 11:32:51;;;;;;;15.88;4.35;;;;;;;;;;5058505;28;20052;-74
2022/09/08 11:35:38;;;;;;;11.65;4.07;;;;;;;;;;5060088;28;20548;-75
2022/09/08 11:38:23;;;;;;;15.02;4.40;;;;;;;;;;5057682;28;20089;-74
2022/09/08 11:41:11;;;;;;;13.25;5.00;;;;;;;;;;5057664;28;20056;-75
2022/09/08 11:43:38;;;;;;;16.45;5.00;;;;;;;;;;5058600;28;20056;-74
2022/09/08 11:46:22;;;;;;;17.08;4.97;;;;;;;;;;5057873;28;20499;-75
2022/09/08 11:49:04;;;;;;;16.42;4.80;;;;;;;;;;5059047;28;20507;-74
2022/09/08 11:51:49;;;;;;;10.50;4.70;;;;;;;;;;5066933;28;20410;-74
2022/09/08 11:54:21;;;;;;;22.48;4.60;;;;;;;;;;5054852;28;20473;-74
2022/09/08 11:56:47;;;;;;;19.50;4.22;;;;;;;;;;5050727;28;20112;-75
2022/09/08 11:59:34;;;;;;;19.55;4.78;;;;;;;;;;5053866;28;20040;-75
2022/09/08 12:02:21;;;;;;;12.60;4.35;;;;;;;;;;5052693;28;20378;-75
2022/09/08 12:05:02;;;;;;;16.17;5.00;;;;;;;;;;5054150;28;20028;-75
2022/09/08 12:07:28;;;;;;;10.45;4.28;;;;;;;;;;5050699;28;20012;-74
2022/09/08 12:09:54;;;;;;;18.83;4.53;;;;;;;;;;5055820;28;20096;-74
2022/09/08 12:12:30;;;;;;;15.52;4.13;;;;;;;;;;5054505;28;20353;-75
2022/09/08 12:15:12;;;;;;;17.58;4.55;;;;;;;;;;5056930;28;20517;-75
2022/09/08 12:17:53;;;;;;;14.82;4.25;;;;;;;;;;5056312;28;20338;-75
2022/09/08 12:20:21;;;;;;;;;;;;;;;;;;5057547;28;20027;-75
2022/09/08 12:23:07;;;;;;;14.85;4.18;;;;;;;;;;5057536;28;19923;-75
2022/09/08 12:25:42;;;;;;;14.93;3.50;;;;;;;;;;5057160;28;20029;-75
2022/09/08 12:28:16;;;;;;;16.77;4.32;;;;;;;;;;5054519;28;20036;-75
2022/09/08 12:31:00;;;;;;;10.93;3.90;;;;;;;;;;5056498;28;20055;-74
2022/09/08 12:33:44;;;;;;;10.45;3.08;;;;;;;;;;5054579;28;20025;-74
2022/09/08 12:36:26;;;;;;;15.57;4.18;;;;;;;;;;5053564;28;20017;-75
2022/09/08 12:39:15;;;;;;;13.70;4.50;;;;;;;;;;5054810;28;20120;-75
2022/09/08 12:41:50;;;;;;;12.50;3.45;;;;;;;;;;5054781;28;20079;-75
2022/09/08 12:44:23;;;;;;;13.48;4.00;;;;;;;;;;5057929;28;20028;-75
2022/09/08 12:47:05;;;;;;;13.05;3.90;;;;;;;;;;5055376;28;20403;-75
2022/09/08 12:49:46;;;;;;;15.95;4.00;;;;;;;;;;5054575;28;20102;-75
2022/09/08 12:52:12;;;;;;;;;;;;;;;;;;5058776;28;20056;-74
2022/09/08 12:54:44;;;;;;;15.65;4.20;;;;;;;;;;5058362;28;19904;-75
2022/09/08 12:57:28;;;;;;;12.77;3.67;;;;;;;;;;5056602;28;20066;-75
2022/09/08 13:00:09;;;;;;;14.48;3.80;;;;;;;;;;5058307;28;20029;-75
2022/09/08 13:02:53;;;;;;;13.97;3.73;;;;;;;;;;5055725;28;20021;-74
2022/09/08 13:05:38;;;;;;;15.13;3.10;;;;;;;;;;5057971;28;20074;-73
2022/09/08 13:08:04;;;;;;;13.30;4.07;;;;;;;;;;5057990;28;20021;-75
2022/09/08 13:10:38;;;;;;;11.27;3.22;;;;;;;;;;5056666;28;20483;-75
2022/09/08 13:13:20;;;;;;;13.32;3.63;;;;;;;;;;5057513;28;20020;-75
2022/09/08 13:15:51;;;;;;;11.40;3.35;;;;;;;;;;5055451;28;20476;-75
2022/09/08 13:18:17;;;;;;;;;;;;;;;;;;5058527;28;20032;-75
2022/09/08 13:20:46;;;;;;;13.70;3.70;;;;;;;;;;5059253;28;19943;-75
2022/09/08 13:23:39;;;;;;;14.10;3.78;;;;;;;;;;5057063;28;20269;-74
2022/09/08 13:26:08;;;;;;;12.85;3.17;;;;;;;;;;5057370;28;20473;-74
2022/09/08 13:28:34;;;;;;;17.20;4.15;;;;;;;;;;5063248;28;20060;-75
2022/09/08 13:31:06;;;;;;;13.88;3.75;;;;;;;;;;5061495;28;20525;-74
2022/09/08 13:33:32;;;;;;;15.23;4.22;;;;;;;;;;5065824;28;20056;-74
2022/09/08 13:36:12;;;;;;;23.17;4.72;;;;;;;;;;5062163;28;20066;-75
2022/09/08 13:38:44;;;;;;;13.15;4.00;;;;;;;;;;5060879;28;20036;-74
2022/09/08 13:41:37;;;;;;;11.52;3.33;;;;;;;;;;5061234;28;20357;-74
2022/09/08 13:44:03;;;;;;;15.55;3.75;;;;;;;;;;5061948;28;20024;-75
2022/09/08 13:46:35;;;;;;;10.07;3.40;;;;;;;;;;5059744;28;20174;-75
2022/09/08 13:49:20;;;;;;;13.65;4.28;;;;;;;;;;5061222;28;20102;-75
2022/09/08 13:51:57;;;;;;;14.75;4.07;;;;;;;;;;5054420;28;20028;-75
2022/09/08 13:54:46;;;;;;;11.45;3.72;;;;;;;;;;5055230;28;20020;-75
2022/09/08 13:57:45;;;;;;;10.75;3.28;;;;;;;;;;5053398;28;20021;-74
2022/09/08 14:00:12;;;;;;;14.55;4.32;;;;;;;;;;5046127;28;20127;-75
2022/09/08 14:02:48;;;;;;;6.82;3.00;;;;;;;;;;5056205;28;20021;-75
2022/09/08 14:05:21;;;;;;;14.75;4.10;;;;;;;;;;5053521;28;20498;-75
2022/09/08 14:07:58;;;;;;;14.90;4.25;;;;;;;;;;5056003;28;20083;-75
2022/09/08 14:10:31;;;;;;;20.23;4.45;;;;;;;;;;5054484;28;20027;-75
2022/09/08 14:13:04;;;;;;;15.55;4.35;;;;;;;;;;5055664;28;20044;-75
2022/09/08 14:15:39;;;;;;;15.68;4.18;;;;;;;;;;5054541;28;20078;-75
2022/09/08 14:18:12;;;;;;;7.38;3.10;;;;;;;;;;5056536;28;20024;-75
2022/09/08 14:20:45;;;;;;;14.45;3.92;;;;;;;;;;5051534;28;20029;-75
2022/09/08 14:23:23;;;;;;;16.75;4.05;;;;;;;;;;5056057;28;20093;-75
2022/09/08 14:25:51;;;;;;;12.25;3.90;;;;;;;;;;5054050;28;20611;-74
2022/09/08 14:28:23;;;;;;;13.75;4.45;;;;;;;;;;5053900;28;20111;-76
2022/09/08 14:30:55;;;;;;;15.80;4.47;;;;;;;;;;5053857;28;20032;-74
2022/09/08 14:33:30;;;;;;;16.85;4.15;;;;;;;;;;5051073;28;20025;-74
2022/09/08 14:36:09;;;;;;;13.82;4.38;;;;;;;;;;5057178;28;20566;-74
2022/09/08 14:38:44;;;;;;;11.05;4.47;;;;;;;;;;5057619;28;20043;-73
2022/09/08 14:41:16;;;;;;;17.65;4.13;;;;;;;;;;5055168;28;20025;-74
2022/09/08 14:43:49;;;;;;;13.82;3.90;;;;;;;;;;5057877;28;20334;-75
2022/09/08 14:46:33;;;;;;;12.57;4.35;;;;;;;;;;5046339;28;20027;-76
2022/09/08 14:49:08;;;;;;;19.60;3.95;;;;;;;;;;5056006;28;20040;-73
2022/09/08 14:51:38;;;;;;;14.75;4.63;;;;;;;;;;5060406;28;20109;-73
2022/09/08 14:54:14;;;;;;;12.38;5.13;;;;;;;;;;5058843;28;20039;-74
2022/09/08 14:56:40;;;;;;;14.70;4.68;;;;;;;;;;5051772;28;20381;-75
2022/09/08 14:59:16;;;;;;;10.07;4.13;;;;;;;;;;5061041;28;20032;-75
2022/09/08 15:01:45;;;;;;;10.55;4.28;;;;;;;;;;5061151;28;20063;-75
2022/09/08 15:04:17;;;;;;;9.30;4.13;;;;;;;;;;5062168;28;20020;-76
2022/09/08 15:06:46;;;;;;;14.07;3.78;;;;;;;;;;5062111;28;20039;-74
2022/09/08 15:09:22;;;;;;;9.90;4.35;;;;;;;;;;5060511;28;20044;-76
2022/09/08 15:11:49;;;;;;;13.32;4.13;;;;;;;;;;5060435;28;20484;-74
2022/09/08 15:14:28;;;;;;;17.80;4.60;;;;;;;;;;5064829;28;20274;-76
2022/09/08 15:17:03;;;;;;;15.80;4.65;;;;;;;;;;5060369;28;20021;-75
2022/09/08 15:19:33;;;;;;;15.20;4.32;;;;;;;;;;5057989;28;20489;-76
2022/09/08 15:22:01;;;;;;;17.93;4.90;;;;;;;;;;5050350;28;20016;-74
2022/09/08 15:24:33;;;;;;;15.48;4.28;;;;;;;;;;5058185;28;20032;-75